createdAt,value
2016-12-23T00:00:10.211Z,0
2016-12-23T00:01:10.502Z,0
2016-12-23T00:02:10.170Z,0
2016-12-23T00:03:10.503Z,0
2016-12-23T00:04:10.141Z,0
2016-12-23T00:05:10.433Z,0
2016-12-23T00:06:10.411Z,0
2016-12-23T00:07:10.081Z,0
2016-12-23T00:08:10.378Z,0
2016-12-23T00:09:10.362Z,0
2016-12-23T00:10:10.027Z,0
2016-12-23T00:11:10.012Z,0
2016-12-23T00:12:09.989Z,0
2016-12-23T00:13:09.971Z,0
2016-12-23T00:14:09.951Z,0
2016-12-23T00:15:09.938Z,0
2016-12-23T00:16:09.940Z,0
2016-12-23T00:17:09.900Z,0
2016-12-23T00:18:09.877Z,0
2016-12-23T00:19:09.861Z,0
2016-12-23T00:20:09.844Z,0
2016-12-23T00:21:09.846Z,0
2016-12-23T00:22:09.817Z,0
2016-12-23T00:23:09.785Z,0
2016-12-23T00:24:10.087Z,0
2016-12-23T00:25:09.803Z,0
2016-12-23T00:26:09.731Z,0
2016-12-23T00:27:09.712Z,0
2016-12-23T00:28:10.001Z,0
2016-12-23T00:29:09.672Z,0
2016-12-23T00:30:09.960Z,0
2016-12-23T00:31:09.636Z,0
2016-12-23T00:32:09.927Z,0
2016-12-23T00:33:09.600Z,0
2016-12-23T00:34:09.897Z,0
2016-12-23T00:35:09.872Z,0
2016-12-23T00:36:09.567Z,0
2016-12-23T00:37:09.863Z,0
2016-12-23T00:38:09.499Z,0
2016-12-23T00:39:09.486Z,0
2016-12-23T00:40:09.575Z,0
2016-12-23T00:41:09.487Z,0
2016-12-23T00:42:09.431Z,0
2016-12-23T00:43:09.756Z,0
2016-12-23T00:44:09.390Z,0
2016-12-23T00:45:09.373Z,0
2016-12-23T00:46:09.356Z,0
2016-12-23T00:47:09.337Z,0
2016-12-23T00:48:09.942Z,0
2016-12-23T00:49:09.305Z,0
2016-12-23T00:50:09.287Z,0
2016-12-23T00:51:09.266Z,0
2016-12-23T00:52:09.262Z,0
2016-12-23T00:53:09.223Z,0
2016-12-23T00:54:09.520Z,0
2016-12-23T00:55:09.655Z,0
2016-12-23T00:56:09.171Z,0
2016-12-23T00:57:09.157Z,0
2016-12-23T00:58:09.129Z,0
2016-12-23T00:59:09.138Z,0
2016-12-23T01:00:09.100Z,0
2016-12-23T01:01:09.075Z,0
2016-12-23T01:02:09.060Z,0
2016-12-23T01:03:09.041Z,0
2016-12-23T01:04:09.030Z,0
2016-12-23T01:05:09.002Z,0
2016-12-23T01:06:08.986Z,0
2016-12-23T01:07:09.277Z,0
2016-12-23T01:08:09.259Z,0
2016-12-23T01:09:08.930Z,0
2016-12-23T01:10:08.910Z,0
2016-12-23T01:11:08.936Z,0
2016-12-23T01:12:08.872Z,0
2016-12-23T01:13:09.167Z,0
2016-12-23T01:14:08.847Z,0
2016-12-23T01:15:08.824Z,0
2016-12-23T01:16:08.894Z,0
2016-12-23T01:17:08.779Z,0
2016-12-23T01:18:08.761Z,0
2016-12-23T01:19:09.050Z,0
2016-12-23T01:20:09.038Z,0
2016-12-23T01:21:08.715Z,0
2016-12-23T01:22:08.995Z,0
2016-12-23T01:23:08.664Z,0
2016-12-23T01:24:08.645Z,0
2016-12-23T01:25:09.255Z,0
2016-12-23T01:26:08.655Z,0
2016-12-23T01:27:08.589Z,0
2016-12-23T01:28:08.570Z,0
2016-12-23T01:29:08.548Z,0
2016-12-23T01:30:08.848Z,0
2016-12-23T01:31:08.510Z,0
2016-12-23T01:32:08.809Z,0
2016-12-23T01:33:08.504Z,0
2016-12-23T01:34:08.458Z,0
2016-12-23T01:35:08.443Z,0
2016-12-23T01:36:08.831Z,0
2016-12-23T01:37:08.401Z,0
2016-12-23T01:38:08.383Z,0
2016-12-23T01:39:08.678Z,0
2016-12-23T01:40:08.343Z,0
2016-12-23T01:41:08.329Z,0
2016-12-23T01:42:08.622Z,0
2016-12-23T01:43:08.601Z,0
2016-12-23T01:44:08.585Z,0
2016-12-23T01:45:08.258Z,0
2016-12-23T01:46:08.238Z,0
2016-12-23T01:47:08.534Z,0
2016-12-23T01:48:08.518Z,0
2016-12-23T01:49:08.485Z,0
2016-12-23T01:50:08.158Z,0
2016-12-23T01:51:08.455Z,0
2016-12-23T01:52:08.116Z,0
2016-12-23T01:53:08.419Z,0
2016-12-23T01:54:08.111Z,0
2016-12-23T01:55:08.071Z,0
2016-12-23T01:56:08.048Z,0
2016-12-23T01:57:08.132Z,0
2016-12-23T01:58:08.010Z,0
2016-12-23T01:59:07.995Z,0
2016-12-23T02:00:08.327Z,0
2016-12-23T02:01:07.957Z,0
2016-12-23T02:02:07.930Z,0
2016-12-23T02:03:07.925Z,0
2016-12-23T02:04:08.236Z,0
2016-12-23T02:05:07.897Z,0
2016-12-23T02:06:07.897Z,0
2016-12-23T02:07:08.531Z,0
2016-12-23T02:08:08.138Z,0
2016-12-23T02:09:07.817Z,0
2016-12-23T02:10:08.099Z,0
2016-12-23T02:11:07.766Z,0
2016-12-23T02:12:07.752Z,0
2016-12-23T02:13:08.043Z,0
2016-12-23T02:14:08.021Z,0
2016-12-23T02:15:07.693Z,0
2016-12-23T02:16:07.674Z,0
2016-12-23T02:17:07.973Z,0
2016-12-23T02:18:07.947Z,0
2016-12-23T02:19:07.930Z,0
2016-12-23T02:20:07.597Z,0
2016-12-23T02:21:07.583Z,0
2016-12-23T02:22:07.559Z,0
2016-12-23T02:23:07.539Z,0
2016-12-23T02:24:07.529Z,0
2016-12-23T02:25:08.126Z,0
2016-12-23T02:26:07.797Z,0
2016-12-23T02:27:07.783Z,0
2016-12-23T02:28:07.448Z,0
2016-12-23T02:29:07.431Z,0
2016-12-23T02:30:07.612Z,0
2016-12-23T02:31:07.711Z,0
2016-12-23T02:32:07.734Z,0
2016-12-23T02:33:07.667Z,0
2016-12-23T02:34:07.645Z,0
2016-12-23T02:35:07.626Z,0
2016-12-23T02:36:07.614Z,0
2016-12-23T02:37:07.596Z,0
2016-12-23T02:38:07.255Z,0
2016-12-23T02:39:07.242Z,0
2016-12-23T02:40:07.221Z,0
2016-12-23T02:41:07.199Z,0
2016-12-23T02:42:07.504Z,0
2016-12-23T02:43:07.475Z,0
2016-12-23T02:44:07.151Z,0
2016-12-23T02:45:07.123Z,0
2016-12-23T02:46:07.104Z,0
2016-12-23T02:47:07.088Z,0
2016-12-23T02:48:07.382Z,0
2016-12-23T02:49:07.055Z,0
2016-12-23T02:50:07.033Z,0
2016-12-23T02:51:07.017Z,0
2016-12-23T02:52:06.996Z,0
2016-12-23T02:53:07.020Z,0
2016-12-23T02:54:07.263Z,0
2016-12-23T02:55:07.247Z,0
2016-12-23T02:56:07.227Z,0
2016-12-23T02:57:06.899Z,0
2016-12-23T02:58:07.191Z,0
2016-12-23T02:59:06.861Z,0
2016-12-23T03:00:06.848Z,0
2016-12-23T03:01:06.821Z,0
2016-12-23T03:02:06.799Z,0
2016-12-23T03:03:06.787Z,0
2016-12-23T03:04:07.071Z,0
2016-12-23T03:05:07.055Z,0
2016-12-23T03:06:07.039Z,0
2016-12-23T03:07:06.696Z,0
2016-12-23T03:08:06.697Z,0
2016-12-23T03:09:06.985Z,0
2016-12-23T03:10:06.654Z,0
2016-12-23T03:11:06.941Z,0
2016-12-23T03:12:06.917Z,0
2016-12-23T03:13:06.588Z,0
2016-12-23T03:14:06.895Z,0
2016-12-23T03:15:06.544Z,0
2016-12-23T03:16:06.540Z,0
2016-12-23T03:17:06.531Z,0
2016-12-23T03:18:06.488Z,0
2016-12-23T03:19:06.469Z,0
2016-12-23T03:20:06.450Z,0
2016-12-23T03:21:06.738Z,0
2016-12-23T03:22:06.412Z,0
2016-12-23T03:23:06.702Z,0
2016-12-23T03:24:06.391Z,0
2016-12-23T03:25:06.359Z,0
2016-12-23T03:26:06.329Z,0
2016-12-23T03:27:06.310Z,0
2016-12-23T03:28:06.289Z,0
2016-12-23T03:29:06.282Z,0
2016-12-23T03:30:06.578Z,0
2016-12-23T03:31:06.232Z,0
2016-12-23T03:32:06.525Z,0
2016-12-23T03:33:06.198Z,0
2016-12-23T03:34:06.173Z,0
2016-12-23T03:35:06.156Z,0
2016-12-23T03:36:06.137Z,0
2016-12-23T03:37:06.430Z,0
2016-12-23T03:38:06.409Z,0
2016-12-23T03:39:06.383Z,0
2016-12-23T03:40:06.049Z,0
2016-12-23T03:41:06.073Z,0
2016-12-23T03:42:06.030Z,0
2016-12-23T03:43:06.003Z,0
2016-12-23T03:44:05.983Z,0
2016-12-23T03:45:06.278Z,0
2016-12-23T03:46:05.964Z,0
2016-12-23T03:47:05.924Z,0
2016-12-23T03:48:05.900Z,0
2016-12-23T03:49:06.192Z,0
2016-12-23T03:50:06.484Z,0
2016-12-23T03:51:05.848Z,0
2016-12-23T03:52:05.820Z,0
2016-12-23T03:53:05.797Z,0
2016-12-23T03:54:05.831Z,0
2016-12-23T03:55:05.760Z,0
2016-12-23T03:56:05.743Z,0
2016-12-23T03:57:05.727Z,0
2016-12-23T03:58:05.696Z,0
2016-12-23T03:59:06.304Z,0
2016-12-23T04:00:05.657Z,0
2016-12-23T04:01:05.639Z,0
2016-12-23T04:02:05.963Z,0
2016-12-23T04:03:05.622Z,0
2016-12-23T04:04:05.621Z,0
2016-12-23T04:05:05.880Z,0
2016-12-23T04:06:05.868Z,0
2016-12-23T04:07:05.523Z,0
2016-12-23T04:08:05.813Z,0
2016-12-23T04:09:05.481Z,0
2016-12-23T04:10:05.472Z,0
2016-12-23T04:11:05.767Z,0
2016-12-23T04:12:05.742Z,0
2016-12-23T04:13:05.406Z,0
2016-12-23T04:14:05.702Z,0
2016-12-23T04:15:05.372Z,0
2016-12-23T04:16:05.343Z,0
2016-12-23T04:17:05.640Z,0
2016-12-23T04:18:05.305Z,0
2016-12-23T04:19:05.611Z,0
2016-12-23T04:20:05.266Z,0
2016-12-23T04:21:05.563Z,0
2016-12-23T04:22:05.227Z,0
2016-12-23T04:23:05.212Z,0
2016-12-23T04:24:05.195Z,0
2016-12-23T04:25:05.166Z,0
2016-12-23T04:26:05.774Z,0
2016-12-23T04:27:05.137Z,0
2016-12-23T04:28:05.425Z,0
2016-12-23T04:29:05.092Z,0
2016-12-23T04:30:05.274Z,0
2016-12-23T04:31:05.400Z,0
2016-12-23T04:32:05.033Z,0
2016-12-23T04:33:05.014Z,0
2016-12-23T04:34:04.991Z,0
2016-12-23T04:35:05.287Z,0
2016-12-23T04:36:05.267Z,0
2016-12-23T04:37:04.930Z,0
2016-12-23T04:38:04.911Z,0
2016-12-23T04:39:04.895Z,0
2016-12-23T04:40:04.875Z,0
2016-12-23T04:41:04.851Z,0
2016-12-23T04:42:04.833Z,0
2016-12-23T04:43:04.813Z,0
2016-12-23T04:44:04.790Z,0
2016-12-23T04:45:04.773Z,0
2016-12-23T04:46:04.763Z,0
2016-12-23T04:47:05.363Z,0
2016-12-23T04:48:04.719Z,0
2016-12-23T04:49:05.005Z,0
2016-12-23T04:50:04.673Z,0
2016-12-23T04:51:04.655Z,0
2016-12-23T04:52:04.948Z,0
2016-12-23T04:53:04.618Z,0
2016-12-23T04:54:04.592Z,0
2016-12-23T04:55:05.202Z,0
2016-12-23T04:56:04.551Z,0
2016-12-23T04:57:04.855Z,0
2016-12-23T04:58:04.821Z,0
2016-12-23T04:59:04.495Z,0
2016-12-23T05:00:04.789Z,0
2016-12-23T05:01:04.457Z,0
2016-12-23T05:02:04.439Z,0
2016-12-23T05:03:04.747Z,0
2016-12-23T05:04:04.392Z,0
2016-12-23T05:05:04.689Z,0
2016-12-23T05:06:04.351Z,0
2016-12-23T05:07:04.332Z,0
2016-12-23T05:08:04.319Z,0
2016-12-23T05:09:04.618Z,0
2016-12-23T05:10:04.279Z,0
2016-12-23T05:11:04.268Z,0
2016-12-23T05:12:04.240Z,0
2016-12-23T05:13:04.228Z,0
2016-12-23T05:14:04.203Z,0
2016-12-23T05:15:04.181Z,0
2016-12-23T05:16:04.170Z,0
2016-12-23T05:17:04.141Z,0
2016-12-23T05:18:04.436Z,0
2016-12-23T05:19:04.100Z,0
2016-12-23T05:20:04.089Z,0
2016-12-23T05:21:04.061Z,0
2016-12-23T05:22:04.048Z,0
2016-12-23T05:23:04.025Z,0
2016-12-23T05:24:04.002Z,0
2016-12-23T05:25:03.987Z,0
2016-12-23T05:26:03.966Z,0
2016-12-23T05:27:03.944Z,0
2016-12-23T05:28:04.552Z,0
2016-12-23T05:29:04.219Z,0
2016-12-23T05:30:03.923Z,0
2016-12-23T05:31:04.219Z,0
2016-12-23T05:32:04.161Z,0
2016-12-23T05:33:03.827Z,0
2016-12-23T05:34:03.807Z,0
2016-12-23T05:35:03.795Z,0
2016-12-23T05:36:04.088Z,0
2016-12-23T05:37:03.752Z,0
2016-12-23T05:38:03.730Z,0
2016-12-23T05:39:03.710Z,0
2016-12-23T05:40:04.012Z,0
2016-12-23T05:41:03.673Z,0
2016-12-23T05:42:03.650Z,0
2016-12-23T05:43:03.632Z,0
2016-12-23T05:44:04.238Z,0
2016-12-23T05:45:03.597Z,0
2016-12-23T05:46:03.574Z,0
2016-12-23T05:47:03.554Z,0
2016-12-23T05:48:03.864Z,0
2016-12-23T05:49:04.147Z,0
2016-12-23T05:50:03.503Z,0
2016-12-23T05:51:03.795Z,0
2016-12-23T05:52:03.463Z,0
2016-12-23T05:53:03.757Z,0
2016-12-23T05:54:03.734Z,0
2016-12-23T05:55:03.399Z,0
2016-12-23T05:56:03.695Z,0
2016-12-23T05:57:03.374Z,0
2016-12-23T05:58:03.357Z,0
2016-12-23T05:59:03.954Z,0
2016-12-23T06:00:03.626Z,0
2016-12-23T06:01:03.284Z,0
2016-12-23T06:02:03.343Z,0
2016-12-23T06:03:03.571Z,0
2016-12-23T06:04:03.228Z,0
2016-12-23T06:05:03.209Z,0
2016-12-23T06:06:03.189Z,0
2016-12-23T06:07:03.482Z,0
2016-12-23T06:08:03.474Z,0
2016-12-23T06:09:03.126Z,0
2016-12-23T06:10:03.111Z,0
2016-12-23T06:11:03.121Z,0
2016-12-23T06:12:03.071Z,0
2016-12-23T06:13:03.050Z,0
2016-12-23T06:14:03.031Z,0
2016-12-23T06:15:03.322Z,0
2016-12-23T06:16:02.993Z,0
2016-12-23T06:17:03.598Z,0
2016-12-23T06:18:02.951Z,0
2016-12-23T06:19:02.930Z,0
2016-12-23T06:20:02.907Z,0
2016-12-23T06:21:02.893Z,0
2016-12-23T06:22:02.875Z,0
2016-12-23T06:23:02.849Z,0
2016-12-23T06:24:02.834Z,0
2016-12-23T06:25:02.812Z,0
2016-12-23T06:26:03.112Z,0
2016-12-23T06:27:03.184Z,0
2016-12-23T06:28:02.765Z,0
2016-12-23T06:29:02.755Z,0
2016-12-23T06:30:03.129Z,0
2016-12-23T06:31:02.701Z,0
2016-12-23T06:32:02.720Z,0
2016-12-23T06:33:02.966Z,0
2016-12-23T06:34:02.952Z,0
2016-12-23T06:35:02.614Z,0
2016-12-23T06:36:02.913Z,0
2016-12-23T06:37:02.580Z,0
2016-12-23T06:38:02.880Z,0
2016-12-23T06:39:02.849Z,0
2016-12-23T06:40:02.839Z,0
2016-12-23T06:41:02.499Z,0
2016-12-23T06:42:02.481Z,0
2016-12-23T06:43:02.468Z,0
2016-12-23T06:44:02.439Z,0
2016-12-23T06:45:02.730Z,0
2016-12-23T06:46:02.415Z,0
2016-12-23T06:47:02.387Z,0
2016-12-23T06:48:02.363Z,0
2016-12-23T06:49:02.349Z,0
2016-12-23T06:50:02.326Z,0
2016-12-23T06:51:02.328Z,0
2016-12-23T06:52:02.333Z,0
2016-12-23T06:53:02.285Z,0
2016-12-23T06:54:02.245Z,0
2016-12-23T06:55:02.224Z,0
2016-12-23T06:56:02.209Z,0
2016-12-23T06:57:02.187Z,0
2016-12-23T06:58:02.173Z,4
2016-12-23T06:59:02.163Z,4
2016-12-23T07:00:02.138Z,0
2016-12-23T07:01:02.114Z,0
2016-12-23T07:02:02.137Z,4
2016-12-23T07:03:02.080Z,4
2016-12-23T07:04:02.057Z,4
2016-12-23T07:05:02.342Z,4
2016-12-23T07:06:02.016Z,4
2016-12-23T07:07:02.331Z,8
2016-12-23T07:08:02.282Z,8
2016-12-23T07:09:02.267Z,8
2016-12-23T07:10:01.930Z,8
2016-12-23T07:11:01.935Z,8
2016-12-23T07:12:01.892Z,8
2016-12-23T07:13:01.881Z,16
2016-12-23T07:14:01.859Z,16
2016-12-23T07:15:01.836Z,16
2016-12-23T07:16:01.814Z,16
2016-12-23T07:17:01.798Z,24
2016-12-23T07:18:01.784Z,24
2016-12-23T07:19:01.756Z,28
2016-12-23T07:20:02.044Z,32
2016-12-23T07:21:01.718Z,40
2016-12-23T07:22:01.698Z,44
2016-12-23T07:23:01.681Z,48
2016-12-23T07:24:01.996Z,52
2016-12-23T07:25:01.638Z,60
2016-12-23T07:26:01.931Z,68
2016-12-23T07:27:01.606Z,68
2016-12-23T07:28:02.038Z,76
2016-12-23T07:29:02.209Z,84
2016-12-23T07:30:02.203Z,92
2016-12-23T07:31:01.838Z,96
2016-12-23T07:32:01.505Z,100
2016-12-23T07:33:01.485Z,104
2016-12-23T07:34:01.466Z,112
2016-12-23T07:35:01.444Z,120
2016-12-23T07:36:01.741Z,132
2016-12-23T07:37:01.730Z,140
2016-12-23T07:38:01.411Z,152
2016-12-23T07:39:01.677Z,160
2016-12-23T07:40:01.347Z,172
2016-12-23T07:41:01.327Z,188
2016-12-23T07:42:01.614Z,216
2016-12-23T07:43:01.285Z,256
2016-12-23T07:44:01.270Z,288
2016-12-23T07:45:01.803Z,320
2016-12-23T07:46:01.540Z,360
2016-12-23T07:47:01.206Z,392
2016-12-23T07:48:01.524Z,420
2016-12-23T07:49:01.168Z,440
2016-12-23T07:50:01.150Z,472
2016-12-23T07:51:01.449Z,504
2016-12-23T07:52:01.134Z,528
2016-12-23T07:53:01.097Z,556
2016-12-23T07:54:01.081Z,576
2016-12-23T07:55:01.675Z,588
2016-12-23T07:56:01.044Z,608
2016-12-23T07:57:01.017Z,608
2016-12-23T07:58:00.995Z,604
2016-12-23T07:59:00.977Z,596
2016-12-23T08:00:00.965Z,624
2016-12-23T08:01:00.932Z,668
2016-12-23T08:02:01.548Z,668
2016-12-23T08:03:00.901Z,716
2016-12-23T08:04:01.193Z,764
2016-12-23T08:05:01.106Z,780
2016-12-23T08:06:01.178Z,796
2016-12-23T08:07:00.816Z,808
2016-12-23T08:08:01.161Z,816
2016-12-23T08:09:00.775Z,804
2016-12-23T08:10:01.071Z,780
2016-12-23T08:11:00.767Z,772
2016-12-23T08:12:01.031Z,820
2016-12-23T08:13:00.706Z,840
2016-12-23T08:14:00.994Z,888
2016-12-23T08:15:00.660Z,932
2016-12-23T08:16:00.645Z,976
2016-12-23T08:17:00.628Z,1076
2016-12-23T08:18:00.680Z,1052
2016-12-23T08:19:00.620Z,1044
2016-12-23T08:20:00.571Z,1188
2016-12-23T08:21:00.895Z,1204
2016-12-23T08:22:00.524Z,1248
2016-12-23T08:23:00.820Z,1296
2016-12-23T08:24:00.496Z,1380
2016-12-23T08:25:00.818Z,1316
2016-12-23T08:26:00.456Z,1124
2016-12-23T08:27:00.751Z,872
2016-12-23T08:28:00.422Z,788
2016-12-23T08:29:00.403Z,740
2016-12-23T08:30:00.717Z,712
2016-12-23T08:31:00.369Z,700
2016-12-23T08:32:00.654Z,728
2016-12-23T08:33:00.635Z,748
2016-12-23T08:34:00.298Z,752
2016-12-23T08:35:00.279Z,744
2016-12-23T08:36:00.290Z,760
2016-12-23T08:37:00.242Z,796
2016-12-23T08:38:00.549Z,804
2016-12-23T08:39:00.203Z,852
2016-12-23T08:40:00.499Z,912
2016-12-23T08:41:00.479Z,956
2016-12-23T08:42:00.153Z,972
2016-12-23T08:43:00.128Z,1000
2016-12-23T08:44:00.113Z,1004
2016-12-23T08:45:00.405Z,1040
2016-12-23T08:46:00.071Z,1076
2016-12-23T08:47:00.060Z,1100
2016-12-23T08:48:00.035Z,1144
2016-12-23T08:49:00.327Z,1228
2016-12-23T08:50:00.339Z,1344
2016-12-23T08:51:00.321Z,1404
2016-12-23T08:51:59.973Z,1356
2016-12-23T08:52:59.942Z,1236
2016-12-23T08:53:59.928Z,1104
2016-12-23T08:55:00.217Z,932
2016-12-23T08:55:59.886Z,828
2016-12-23T08:56:59.866Z,868
2016-12-23T08:57:59.856Z,948
2016-12-23T08:58:59.830Z,944
2016-12-23T08:59:59.810Z,904
2016-12-23T09:01:00.134Z,928
2016-12-23T09:01:59.780Z,988
2016-12-23T09:02:59.756Z,1156
2016-12-23T09:03:59.747Z,1220
2016-12-23T09:04:59.718Z,1356
2016-12-23T09:05:59.700Z,1652
2016-12-23T09:06:59.689Z,1664
2016-12-23T09:07:59.973Z,1804
2016-12-23T09:08:59.646Z,1996
2016-12-23T09:09:59.655Z,2212
2016-12-23T09:10:59.609Z,2704
2016-12-23T09:11:59.588Z,3280
2016-12-23T09:12:59.573Z,3144
2016-12-23T09:13:59.556Z,2604
2016-12-23T09:14:59.544Z,2588
2016-12-23T09:15:59.831Z,3308
2016-12-23T09:16:59.821Z,3164
2016-12-23T09:17:59.481Z,3680
2016-12-23T09:18:59.460Z,3408
2016-12-23T09:19:59.441Z,2800
2016-12-23T09:20:59.734Z,3128
2016-12-23T09:21:59.412Z,3088
2016-12-23T09:22:59.389Z,3608
2016-12-23T09:23:59.375Z,3668
2016-12-23T09:24:59.974Z,3624
2016-12-23T09:25:59.649Z,3332
2016-12-23T09:26:59.640Z,3044
2016-12-23T09:27:59.302Z,2448
2016-12-23T09:28:59.285Z,2176
2016-12-23T09:29:59.265Z,2236
2016-12-23T09:30:59.245Z,2424
2016-12-23T09:31:59.223Z,2508
2016-12-23T09:32:59.523Z,3108
2016-12-23T09:33:59.194Z,3056
2016-12-23T09:34:59.485Z,3052
2016-12-23T09:35:59.151Z,3708
2016-12-23T09:36:59.167Z,3816
2016-12-23T09:37:59.118Z,4492
2016-12-23T09:38:59.410Z,4704
2016-12-23T09:39:59.083Z,5092
2016-12-23T09:40:59.068Z,5904
2016-12-23T09:41:59.364Z,5172
2016-12-23T09:42:59.026Z,4256
2016-12-23T09:43:59.326Z,3640
2016-12-23T09:44:58.989Z,3636
2016-12-23T09:45:58.983Z,4348
2016-12-23T09:46:58.959Z,4828
2016-12-23T09:47:58.941Z,4604
2016-12-23T09:48:58.926Z,4644
2016-12-23T09:49:59.222Z,5500
2016-12-23T09:50:59.518Z,6484
2016-12-23T09:51:58.876Z,4632
2016-12-23T09:52:58.854Z,4932
2016-12-23T09:53:58.834Z,5136
2016-12-23T09:54:58.822Z,5812
2016-12-23T09:55:58.794Z,4340
2016-12-23T09:56:58.781Z,3916
2016-12-23T09:57:58.764Z,4128
2016-12-23T09:58:58.743Z,5508
2016-12-23T09:59:59.046Z,5360
2016-12-23T10:00:58.711Z,6488
2016-12-23T10:01:58.696Z,5796
2016-12-23T10:02:59.309Z,7612
2016-12-23T10:03:58.659Z,6972
2016-12-23T10:04:58.647Z,7236
2016-12-23T10:05:58.628Z,6724
2016-12-23T10:06:58.924Z,7876
2016-12-23T10:07:58.906Z,7340
2016-12-23T10:08:58.581Z,5964
2016-12-23T10:09:58.886Z,4044
2016-12-23T10:10:58.591Z,5028
2016-12-23T10:11:59.479Z,6560
2016-12-23T10:12:59.151Z,6492
2016-12-23T10:13:58.807Z,5252
2016-12-23T10:14:58.477Z,7164
2016-12-23T10:15:58.768Z,8444
2016-12-23T10:16:58.751Z,8400
2016-12-23T10:17:58.426Z,7880
2016-12-23T10:18:58.418Z,9700
2016-12-23T10:19:58.393Z,10168
2016-12-23T10:20:58.375Z,12404
2016-12-23T10:21:58.359Z,11692
2016-12-23T10:22:58.347Z,11252
2016-12-23T10:23:58.332Z,11172
2016-12-23T10:24:58.309Z,10904
2016-12-23T10:25:58.302Z,10836
2016-12-23T10:26:58.285Z,9236
2016-12-23T10:27:58.267Z,6644
2016-12-23T10:28:58.279Z,8052
2016-12-23T10:29:58.549Z,8764
2016-12-23T10:30:58.422Z,7732
2016-12-23T10:31:58.204Z,7760
2016-12-23T10:32:58.499Z,8724
2016-12-23T10:33:58.176Z,7864
2016-12-23T10:34:58.465Z,8268
2016-12-23T10:35:58.141Z,7228
2016-12-23T10:36:58.126Z,6556
2016-12-23T10:37:58.115Z,6948
2016-12-23T10:38:58.091Z,6584
2016-12-23T10:39:58.077Z,5500
2016-12-23T10:40:58.380Z,6536
2016-12-23T10:41:58.046Z,5860
2016-12-23T10:42:58.061Z,5116
2016-12-23T10:43:58.326Z,5768
2016-12-23T10:44:58.016Z,6680
2016-12-23T10:45:58.308Z,6712
2016-12-23T10:46:57.973Z,7032
2016-12-23T10:47:58.014Z,8556
2016-12-23T10:48:57.957Z,10788
2016-12-23T10:49:58.237Z,9676
2016-12-23T10:50:57.927Z,6804
2016-12-23T10:51:57.924Z,7948
2016-12-23T10:52:57.893Z,8128
2016-12-23T10:53:57.875Z,9844
2016-12-23T10:54:57.843Z,8520
2016-12-23T10:55:57.828Z,7312
2016-12-23T10:56:58.128Z,7116
2016-12-23T10:57:58.109Z,10124
2016-12-23T10:58:57.793Z,11800
2016-12-23T10:59:57.823Z,11024
2016-12-23T11:00:58.066Z,6468
2016-12-23T11:01:57.749Z,6796
2016-12-23T11:02:57.727Z,9040
2016-12-23T11:03:57.711Z,10248
2016-12-23T11:04:57.699Z,11896
2016-12-23T11:05:57.684Z,10636
2016-12-23T11:06:57.671Z,6672
2016-12-23T11:07:57.969Z,5752
2016-12-23T11:08:57.655Z,4444
2016-12-23T11:09:57.635Z,3868
2016-12-23T11:10:57.943Z,4332
2016-12-23T11:11:57.930Z,5456
2016-12-23T11:12:57.933Z,6496
2016-12-23T11:13:57.597Z,7416
2016-12-23T11:14:57.925Z,7172
2016-12-23T11:15:57.745Z,5832
2016-12-23T11:16:57.538Z,5124
2016-12-23T11:17:57.508Z,6120
2016-12-23T11:18:57.495Z,7052
2016-12-23T11:19:57.486Z,5588
2016-12-23T11:20:57.467Z,5548
2016-12-23T11:21:57.468Z,6312
2016-12-23T11:22:57.772Z,7892
2016-12-23T11:23:57.763Z,9108
2016-12-23T11:24:57.452Z,8700
2016-12-23T11:25:57.395Z,9920
2016-12-23T11:26:57.385Z,8716
2016-12-23T11:27:57.356Z,7808
2016-12-23T11:28:57.349Z,7368
2016-12-23T11:29:57.340Z,7760
2016-12-23T11:30:57.646Z,7712
2016-12-23T11:31:57.317Z,7676
2016-12-23T11:32:57.611Z,8284
2016-12-23T11:33:57.325Z,9160
2016-12-23T11:34:57.260Z,9672
2016-12-23T11:35:57.972Z,9524
2016-12-23T11:36:57.261Z,9216
2016-12-23T11:37:57.211Z,9176
2016-12-23T11:38:57.539Z,9640
2016-12-23T11:39:57.214Z,10024
2016-12-23T11:40:57.487Z,9976
2016-12-23T11:41:57.464Z,9908
2016-12-23T11:42:57.446Z,10084
2016-12-23T11:43:57.432Z,9684
2016-12-23T11:44:57.734Z,8128
2016-12-23T11:45:57.407Z,7240
2016-12-23T11:46:57.075Z,7148
2016-12-23T11:47:57.371Z,7528
2016-12-23T11:48:57.369Z,8044
2016-12-23T11:49:57.031Z,8144
2016-12-23T11:50:57.322Z,8528
2016-12-23T11:51:57.001Z,8768
2016-12-23T11:52:56.980Z,9352
2016-12-23T11:53:56.972Z,9452
2016-12-23T11:54:56.958Z,9948
2016-12-23T11:55:57.251Z,10344
2016-12-23T11:56:56.924Z,10440
2016-12-23T11:57:56.908Z,10016
2016-12-23T11:58:57.212Z,9644
2016-12-23T11:59:56.887Z,9476
2016-12-23T12:00:56.867Z,10308
2016-12-23T12:01:57.177Z,10792
2016-12-23T12:02:56.837Z,10376
2016-12-23T12:03:56.823Z,10420
2016-12-23T12:04:56.810Z,10372
2016-12-23T12:05:57.427Z,10444
2016-12-23T12:06:56.784Z,9560
2016-12-23T12:07:56.770Z,9288
2016-12-23T12:08:56.753Z,9208
2016-12-23T12:09:56.735Z,9376
2016-12-23T12:10:56.721Z,8552
2016-12-23T12:11:56.717Z,9128
2016-12-23T12:12:56.695Z,9000
2016-12-23T12:13:57.003Z,8972
2016-12-23T12:14:56.660Z,8168
2016-12-23T12:15:56.648Z,7920
2016-12-23T12:16:56.639Z,7616
2016-12-23T12:17:56.924Z,7032
2016-12-23T12:18:56.611Z,6856
2016-12-23T12:19:56.595Z,6632
2016-12-23T12:20:56.890Z,6712
2016-12-23T12:21:57.195Z,6900
2016-12-23T12:22:56.543Z,6548
2016-12-23T12:23:56.530Z,5972
2016-12-23T12:24:56.852Z,5612
2016-12-23T12:25:56.500Z,5352
2016-12-23T12:26:56.499Z,4800
2016-12-23T12:27:56.473Z,4308
2016-12-23T12:28:56.459Z,4044
2016-12-23T12:29:57.560Z,3748
2016-12-23T12:30:56.656Z,3340
2016-12-23T12:31:57.038Z,3060
2016-12-23T12:32:56.399Z,3012
2016-12-23T12:33:57.007Z,3128
2016-12-23T12:34:56.680Z,3228
2016-12-23T12:35:56.349Z,3396
2016-12-23T12:36:56.654Z,3640
2016-12-23T12:37:56.322Z,3836
2016-12-23T12:38:56.305Z,4080
2016-12-23T12:39:56.288Z,4372
2016-12-23T12:40:56.270Z,4552
2016-12-23T12:41:56.251Z,4512
2016-12-23T12:42:56.241Z,4304
2016-12-23T12:43:56.223Z,3912
2016-12-23T12:44:56.208Z,3476
2016-12-23T12:45:56.318Z,3216
2016-12-23T12:46:56.807Z,3044
2016-12-23T12:47:56.159Z,3000
2016-12-23T12:48:56.771Z,3064
2016-12-23T12:49:56.440Z,3292
2016-12-23T12:50:56.423Z,3820
2016-12-23T12:51:56.097Z,4184
2016-12-23T12:52:56.085Z,4052
2016-12-23T12:53:56.066Z,3900
2016-12-23T12:54:56.084Z,4040
2016-12-23T12:55:56.041Z,4324
2016-12-23T12:56:56.014Z,4548
2016-12-23T12:57:56.012Z,4600
2016-12-23T12:58:56.306Z,4600
2016-12-23T12:59:56.603Z,4804
2016-12-23T13:00:55.952Z,5068
2016-12-23T13:01:55.944Z,5212
2016-12-23T13:02:55.926Z,5316
2016-12-23T13:03:55.906Z,5440
2016-12-23T13:04:55.885Z,5400
2016-12-23T13:05:56.184Z,5376
2016-12-23T13:06:56.173Z,5344
2016-12-23T13:07:55.851Z,5268
2016-12-23T13:08:55.846Z,5336
2016-12-23T13:09:55.822Z,5444
2016-12-23T13:10:55.813Z,5280
2016-12-23T13:11:55.792Z,5096
2016-12-23T13:12:55.763Z,5052
2016-12-23T13:13:55.746Z,5008
2016-12-23T13:14:56.044Z,4948
2016-12-23T13:15:55.712Z,4744
2016-12-23T13:16:56.018Z,4564
2016-12-23T13:17:55.733Z,4412
2016-12-23T13:18:55.998Z,4244
2016-12-23T13:19:55.974Z,4084
2016-12-23T13:20:55.645Z,3904
2016-12-23T13:21:55.638Z,3732
2016-12-23T13:22:55.919Z,3580
2016-12-23T13:23:55.635Z,3452
2016-12-23T13:24:55.616Z,3352
2016-12-23T13:25:55.938Z,3268
2016-12-23T13:26:55.934Z,3196
2016-12-23T13:27:55.539Z,3136
2016-12-23T13:28:55.518Z,3080
2016-12-23T13:29:55.825Z,3040
2016-12-23T13:30:55.817Z,3016
2016-12-23T13:31:55.846Z,3024
2016-12-23T13:32:55.470Z,3048
2016-12-23T13:33:55.436Z,3092
2016-12-23T13:34:55.426Z,3148
2016-12-23T13:35:55.397Z,3204
2016-12-23T13:36:55.732Z,3252
2016-12-23T13:37:55.382Z,3300
2016-12-23T13:38:55.354Z,3344
2016-12-23T13:39:55.651Z,3388
2016-12-23T13:40:55.330Z,3424
2016-12-23T13:41:55.302Z,3448
2016-12-23T13:42:55.290Z,3456
2016-12-23T13:43:55.273Z,3448
2016-12-23T13:44:55.261Z,3416
2016-12-23T13:45:55.243Z,3356
2016-12-23T13:46:55.236Z,3288
2016-12-23T13:47:55.208Z,3216
2016-12-23T13:48:55.204Z,3144
2016-12-23T13:49:55.199Z,3064
2016-12-23T13:50:55.494Z,2980
2016-12-23T13:51:55.512Z,2892
2016-12-23T13:52:55.202Z,2816
2016-12-23T13:53:55.133Z,2756
2016-12-23T13:54:55.433Z,2716
2016-12-23T13:55:55.425Z,2700
2016-12-23T13:56:55.426Z,2720
2016-12-23T13:57:55.736Z,2788
2016-12-23T13:58:55.093Z,2864
2016-12-23T13:59:55.349Z,2932
2016-12-23T14:00:55.326Z,2972
2016-12-23T14:01:55.317Z,2960
2016-12-23T14:02:54.984Z,2908
2016-12-23T14:03:55.605Z,2812